PWSweather.com
Personal Weather Stations
Station Observations
ISYDDANM23
Felsted, AabenraaDK 6200

FelstedAabenraaDK 6200

Lat: 54.977066, Lon: 9.507192

Elevation: 135

Station Type: Davis Vantage Pro 2 Plus 24H

http://www.valkaer.dk

High Low Average
Temperature 64.8°F18.2°C 49.9°F9.9°C 58.4°F14.7°C
Dew Point 58.3°F14.6°C 47.4°F8.6°C 53.2°F11.8°C
Winds 16.1 mph 25.9 kmh Calm Calm 7.0 mph WSW11.3 kmh WSW
Wind Gusts 20.7 mph33.3 kmh -- 10.0 mph16.1 kmh
Humidity 93% 68% 83%
Pressure 30.12 in1020.0 mb 30.06 in1017.9 mb -
Precipitation 0.00 in0.0 mm - -
Hour Temp Dew Point Humidity Winds Wind Gusts Pressure Precip Precip Rate Daily Precip Total
12:00 AM 54.6°F12.6°C 52.0°F11.1°C 91% 4.6 mph SW7.4 kmh SW 5.8 mph9.3 kmh 30.13 in1020.3 mb - 0.00 in0.0 mm 0.00 in0.0 mm
12:10 AM 54.3°F12.4°C 52.0°F11.1°C 92% 2.3 mph SW3.7 kmh SW 3.5 mph5.6 kmh 30.13 in1020.3 mb - 0.00 in0.0 mm 0.00 in0.0 mm
12:15 AM 54.0°F12.2°C 51.7°F10.9°C 92% 2.3 mph SSW3.7 kmh SSW 3.5 mph5.6 kmh 30.13 in1020.3 mb - 0.00 in0.0 mm 0.00 in0.0 mm
12:20 AM 53.7°F12.1°C 51.4°F10.8°C 92% 2.3 mph SSW3.7 kmh SSW 3.5 mph5.6 kmh 30.12 in1020.0 mb - 0.00 in0.0 mm 0.00 in0.0 mm
12:25 AM 53.6°F12.0°C 51.3°F10.7°C 92% 1.2 mph S1.9 kmh S 2.3 mph3.7 kmh 30.12 in1020.0 mb - 0.00 in0.0 mm 0.00 in0.0 mm
12:30 AM 53.4°F11.9°C 51.1°F10.6°C 92% 1.2 mph S1.9 kmh S 3.5 mph5.6 kmh 30.13 in1020.3 mb - 0.00 in0.0 mm 0.00 in0.0 mm
12:35 AM 53.2°F11.8°C 50.9°F10.5°C 92% 2.3 mph SSW3.7 kmh SSW 4.6 mph7.4 kmh 30.12 in1020.0 mb - 0.00 in0.0 mm 0.00 in0.0 mm
12:40 AM 53.1°F11.7°C 50.8°F10.4°C 92% 2.3 mph S3.7 kmh S 3.5 mph5.6 kmh 30.12 in1020.0 mb - 0.00 in0.0 mm 0.00 in0.0 mm
12:45 AM 52.9°F11.6°C 50.6°F10.3°C 92% 3.5 mph S5.6 kmh S 4.6 mph7.4 kmh 30.12 in1020.0 mb - 0.00 in0.0 mm 0.00 in0.0 mm
12:50 AM 52.8°F11.6°C 50.6°F10.3°C 92% 3.5 mph SSW5.6 kmh SSW 4.6 mph7.4 kmh 30.12 in1020.0 mb - 0.00 in0.0 mm 0.00 in0.0 mm
12:55 AM 52.6°F11.4°C 50.3°F10.2°C 92% 2.3 mph SSW3.7 kmh SSW 3.5 mph5.6 kmh 30.12 in1020.0 mb - 0.00 in0.0 mm 0.00 in0.0 mm
01:00 AM 52.6°F11.4°C 50.6°F10.3°C 93% 2.3 mph SSW3.7 kmh SSW 3.5 mph5.6 kmh 30.12 in1020.0 mb - 0.00 in0.0 mm 0.00 in0.0 mm
01:10 AM 53.1°F11.7°C 51.2°F10.7°C 93% 3.5 mph S5.6 kmh S 3.5 mph5.6 kmh 30.12 in1020.0 mb - 0.00 in0.0 mm 0.00 in0.0 mm
01:15 AM 53.3°F11.8°C 51.3°F10.7°C 93% 3.5 mph SSW5.6 kmh SSW 4.6 mph7.4 kmh 30.12 in1020.0 mb - 0.00 in0.0 mm 0.00 in0.0 mm
01:20 AM 53.4°F11.9°C 51.4°F10.8°C 93% 3.5 mph S5.6 kmh S 3.5 mph5.6 kmh 30.11 in1019.6 mb - 0.00 in0.0 mm 0.00 in0.0 mm
01:25 AM 53.6°F12.0°C 51.6°F10.9°C 93% 3.5 mph SSW5.6 kmh SSW 3.5 mph5.6 kmh 30.11 in1019.6 mb - 0.00 in0.0 mm 0.00 in0.0 mm
01:30 AM 53.7°F12.1°C 51.7°F10.9°C 93% 3.5 mph S5.6 kmh S 4.6 mph7.4 kmh 30.11 in1019.6 mb - 0.00 in0.0 mm 0.00 in0.0 mm
01:35 AM 53.9°F12.2°C 51.9°F11.1°C 93% 3.5 mph S5.6 kmh S 4.6 mph7.4 kmh 30.11 in1019.6 mb - 0.00 in0.0 mm 0.00 in0.0 mm
01:40 AM 54.1°F12.3°C 52.1°F11.2°C 93% 3.5 mph S5.6 kmh S 4.6 mph7.4 kmh 30.11 in1019.6 mb - 0.00 in0.0 mm 0.00 in0.0 mm
01:45 AM 54.2°F12.3°C 51.9°F11.1°C 92% 3.5 mph S5.6 kmh S 5.8 mph9.3 kmh 30.11 in1019.6 mb - 0.00 in0.0 mm 0.00 in0.0 mm
01:50 AM 54.4°F12.4°C 52.1°F11.2°C 92% 4.6 mph S7.4 kmh S 5.8 mph9.3 kmh 30.11 in1019.6 mb - 0.00 in0.0 mm 0.00 in0.0 mm
01:55 AM 54.5°F12.5°C 52.2°F11.2°C 92% 4.6 mph S7.4 kmh S 6.9 mph11.1 kmh 30.11 in1019.6 mb - 0.00 in0.0 mm 0.00 in0.0 mm
02:00 AM 54.7°F12.6°C 52.4°F11.3°C 92% 4.6 mph SSW7.4 kmh SSW 5.8 mph9.3 kmh 30.11 in1019.6 mb - 0.00 in0.0 mm 0.00 in0.0 mm
02:10 AM 55.0°F12.8°C 52.4°F11.3°C 91% 4.6 mph SW7.4 kmh SW 5.8 mph9.3 kmh 30.11 in1019.6 mb - 0.00 in0.0 mm 0.00 in0.0 mm
02:15 AM 55.2°F12.9°C 52.6°F11.4°C 91% 4.6 mph SW7.4 kmh SW 8.1 mph13.0 kmh 30.11 in1019.6 mb - 0.00 in0.0 mm 0.00 in0.0 mm
02:20 AM 55.3°F12.9°C 52.7°F11.5°C 91% 3.5 mph SSW5.6 kmh SSW 6.9 mph11.1 kmh 30.10 in1019.3 mb - 0.00 in0.0 mm 0.00 in0.0 mm
02:25 AM 55.4°F13.0°C 52.8°F11.6°C 91% 5.8 mph SSW9.3 kmh SSW 8.1 mph13.0 kmh 30.10 in1019.3 mb - 0.00 in0.0 mm 0.00 in0.0 mm
02:30 AM 55.5°F13.1°C 52.6°F11.4°C 90% 5.8 mph SSW9.3 kmh SSW 6.9 mph11.1 kmh 30.11 in1019.6 mb - 0.00 in0.0 mm 0.00 in0.0 mm
02:35 AM 55.6°F13.1°C 52.7°F11.5°C 90% 4.6 mph SSW7.4 kmh SSW 8.1 mph13.0 kmh 30.10 in1019.3 mb - 0.00 in0.0 mm 0.00 in0.0 mm
02:40 AM 55.7°F13.2°C 52.8°F11.6°C 90% 5.8 mph SSW9.3 kmh SSW 6.9 mph11.1 kmh 30.11 in1019.6 mb - 0.00 in0.0 mm 0.00 in0.0 mm
02:45 AM 55.8°F13.2°C 52.9°F11.6°C 90% 4.6 mph SSW7.4 kmh SSW 8.1 mph13.0 kmh 30.10 in1019.3 mb - 0.00 in0.0 mm 0.00 in0.0 mm
02:50 AM 55.8°F13.2°C 52.9°F11.6°C 90% 4.6 mph SSW7.4 kmh SSW 6.9 mph11.1 kmh 30.10 in1019.3 mb - 0.00 in0.0 mm 0.00 in0.0 mm
02:55 AM 55.8°F13.2°C 52.9°F11.6°C 90% 4.6 mph SSW7.4 kmh SSW 6.9 mph11.1 kmh 30.10 in1019.3 mb - 0.00 in0.0 mm 0.00 in0.0 mm
03:00 AM 55.8°F13.2°C 52.9°F11.6°C 90% 3.5 mph SSW5.6 kmh SSW 4.6 mph7.4 kmh 30.10 in1019.3 mb - 0.00 in0.0 mm 0.00 in0.0 mm
03:10 AM 55.9°F13.3°C 53.0°F11.7°C 90% 4.6 mph SSW7.4 kmh SSW 8.1 mph13.0 kmh 30.10 in1019.3 mb - 0.00 in0.0 mm 0.00 in0.0 mm
03:15 AM 56.0°F13.3°C 53.1°F11.7°C 90% 4.6 mph SSW7.4 kmh SSW 8.1 mph13.0 kmh 30.10 in1019.3 mb - 0.00 in0.0 mm 0.00 in0.0 mm
03:20 AM 56.0°F13.3°C 53.1°F11.7°C 90% 4.6 mph SSW7.4 kmh SSW 5.8 mph9.3 kmh 30.10 in1019.3 mb - 0.00 in0.0 mm 0.00 in0.0 mm
03:25 AM 56.0°F13.3°C 53.1°F11.7°C 90% 3.5 mph SW5.6 kmh SW 4.6 mph7.4 kmh 30.10 in1019.3 mb - 0.00 in0.0 mm 0.00 in0.0 mm
03:30 AM 56.0°F13.3°C 53.1°F11.7°C 90% 5.8 mph SSW9.3 kmh SSW 5.8 mph9.3 kmh 30.10 in1019.3 mb - 0.00 in0.0 mm 0.00 in0.0 mm
03:35 AM 56.1°F13.4°C 53.2°F11.8°C 90% 4.6 mph SSW7.4 kmh SSW 8.1 mph13.0 kmh 30.10 in1019.3 mb - 0.00 in0.0 mm 0.00 in0.0 mm
03:40 AM 56.1°F13.4°C 53.2°F11.8°C 90% 4.6 mph SW7.4 kmh SW 6.9 mph11.1 kmh 30.09 in1019.0 mb - 0.00 in0.0 mm 0.00 in0.0 mm
03:45 AM 56.1°F13.4°C 53.2°F11.8°C 90% 4.6 mph SW7.4 kmh SW 8.1 mph13.0 kmh 30.09 in1019.0 mb - 0.00 in0.0 mm 0.00 in0.0 mm
03:50 AM 56.3°F13.5°C 53.4°F11.9°C 90% 4.6 mph SSW7.4 kmh SSW 5.8 mph9.3 kmh 30.09 in1019.0 mb - 0.00 in0.0 mm 0.00 in0.0 mm
03:55 AM 56.4°F13.6°C 53.5°F11.9°C 90% 5.8 mph SW9.3 kmh SW 8.1 mph13.0 kmh 30.09 in1019.0 mb - 0.00 in0.0 mm 0.00 in0.0 mm
04:00 AM 56.4°F13.6°C 53.5°F11.9°C 90% 5.8 mph SSW9.3 kmh SSW 6.9 mph11.1 kmh 30.09 in1019.0 mb - 0.00 in0.0 mm 0.00 in0.0 mm
04:10 AM 56.4°F13.6°C 53.5°F11.9°C 90% 4.6 mph SW7.4 kmh SW 5.8 mph9.3 kmh 30.09 in1019.0 mb - 0.00 in0.0 mm 0.00 in0.0 mm
04:15 AM 56.4°F13.6°C 53.5°F11.9°C 90% 3.5 mph SSW5.6 kmh SSW 5.8 mph9.3 kmh 30.09 in1019.0 mb - 0.00 in0.0 mm 0.00 in0.0 mm
04:20 AM 56.4°F13.6°C 53.5°F11.9°C 90% 5.8 mph SSW9.3 kmh SSW 9.2 mph14.8 kmh 30.09 in1019.0 mb - 0.00 in0.0 mm 0.00 in0.0 mm
04:25 AM 56.4°F13.6°C 53.5°F11.9°C 90% 4.6 mph SW7.4 kmh SW 8.1 mph13.0 kmh 30.09 in1019.0 mb - 0.00 in0.0 mm 0.00 in0.0 mm
04:30 AM 56.4°F13.6°C 53.5°F11.9°C 90% 4.6 mph S7.4 kmh S 6.9 mph11.1 kmh 30.09 in1019.0 mb - 0.00 in0.0 mm 0.00 in0.0 mm
04:35 AM 56.5°F13.6°C 53.6°F12.0°C 90% 3.5 mph SW5.6 kmh SW 4.6 mph7.4 kmh 30.09 in1019.0 mb - 0.00 in0.0 mm 0.00 in0.0 mm
04:40 AM 56.5°F13.6°C 53.6°F12.0°C 90% 4.6 mph SSW7.4 kmh SSW 5.8 mph9.3 kmh 30.09 in1019.0 mb - 0.00 in0.0 mm 0.00 in0.0 mm
04:45 AM 56.6°F13.7°C 53.7°F12.1°C 90% 4.6 mph SW7.4 kmh SW 4.6 mph7.4 kmh 30.09 in1019.0 mb - 0.00 in0.0 mm 0.00 in0.0 mm
04:50 AM 56.7°F13.7°C 53.8°F12.1°C 90% 4.6 mph SSW7.4 kmh SSW 5.8 mph9.3 kmh 30.09 in1019.0 mb - 0.00 in0.0 mm 0.00 in0.0 mm
04:55 AM 56.8°F13.8°C 53.9°F12.2°C 90% 5.8 mph SW9.3 kmh SW 5.8 mph9.3 kmh 30.09 in1019.0 mb - 0.00 in0.0 mm 0.00 in0.0 mm
05:00 AM 56.8°F13.8°C 53.9°F12.2°C 90% 4.6 mph SSW7.4 kmh SSW 5.8 mph9.3 kmh 30.09 in1019.0 mb - 0.00 in0.0 mm 0.00 in0.0 mm
05:10 AM 56.9°F13.8°C 54.0°F12.2°C 90% 6.9 mph SSW11.1 kmh SSW 10.4 mph16.7 kmh 30.09 in1019.0 mb - 0.00 in0.0 mm 0.00 in0.0 mm
05:15 AM 57.0°F13.9°C 54.0°F12.2°C 90% 4.6 mph SSW7.4 kmh SSW 6.9 mph11.1 kmh 30.09 in1019.0 mb - 0.00 in0.0 mm 0.00 in0.0 mm
05:20 AM 57.0°F13.9°C 54.1°F12.3°C 90% 5.8 mph SSW9.3 kmh SSW 6.9 mph11.1 kmh 30.09 in1019.0 mb - 0.00 in0.0 mm 0.00 in0.0 mm
05:25 AM 57.1°F13.9°C 54.2°F12.3°C 90% 5.8 mph SSW9.3 kmh SSW 5.8 mph9.3 kmh 30.09 in1019.0 mb - 0.00 in0.0 mm 0.00 in0.0 mm
05:30 AM 57.2°F14.0°C 54.0°F12.2°C 89% 5.8 mph SSW9.3 kmh SSW 5.8 mph9.3 kmh 30.09 in1019.0 mb - 0.00 in0.0 mm 0.00 in0.0 mm
05:35 AM 57.3°F14.1°C 54.1°F12.3°C 89% 5.8 mph SSW9.3 kmh SSW 8.1 mph13.0 kmh 30.09 in1019.0 mb - 0.00 in0.0 mm 0.00 in0.0 mm
05:40 AM 57.4°F14.1°C 54.2°F12.3°C 89% 4.6 mph SSW7.4 kmh SSW 8.1 mph13.0 kmh 30.08 in1018.6 mb - 0.00 in0.0 mm 0.00 in0.0 mm
05:45 AM 57.5°F14.2°C 54.2°F12.3°C 89% 5.8 mph SW9.3 kmh SW 6.9 mph11.1 kmh 30.08 in1018.6 mb - 0.00 in0.0 mm 0.00 in0.0 mm
05:50 AM 57.5°F14.2°C 54.3°F12.4°C 89% 5.8 mph SW9.3 kmh SW 8.1 mph13.0 kmh 30.08 in1018.6 mb - 0.00 in0.0 mm 0.00 in0.0 mm
05:55 AM 57.5°F14.2°C 54.0°F12.2°C 88% 5.8 mph SSW9.3 kmh SSW 6.9 mph11.1 kmh 30.08 in1018.6 mb - 0.00 in0.0 mm 0.00 in0.0 mm
06:00 AM 57.5°F14.2°C 54.0°F12.2°C 88% 5.8 mph SW9.3 kmh SW 9.2 mph14.8 kmh 30.08 in1018.6 mb - 0.00 in0.0 mm 0.00 in0.0 mm
06:10 AM 57.7°F14.3°C 54.2°F12.3°C 88% 5.8 mph SW9.3 kmh SW 8.1 mph13.0 kmh 30.09 in1019.0 mb - 0.00 in0.0 mm 0.00 in0.0 mm
06:15 AM 57.8°F14.3°C 54.3°F12.4°C 88% 6.9 mph SW11.1 kmh SW 8.1 mph13.0 kmh 30.08 in1018.6 mb - 0.00 in0.0 mm 0.00 in0.0 mm
06:20 AM 58.0°F14.4°C 54.5°F12.5°C 88% 6.9 mph S11.1 kmh S 11.5 mph18.5 kmh 30.08 in1018.6 mb - 0.00 in0.0 mm 0.00 in0.0 mm
06:25 AM 58.2°F14.6°C 54.3°F12.4°C 87% 6.9 mph SSW11.1 kmh SSW 11.5 mph18.5 kmh 30.08 in1018.6 mb - 0.00 in0.0 mm 0.00 in0.0 mm
06:30 AM 58.3°F14.6°C 54.4°F12.4°C 87% 9.2 mph SSW14.8 kmh SSW 11.5 mph18.5 kmh 30.08 in1018.6 mb - 0.00 in0.0 mm 0.00 in0.0 mm
06:35 AM 58.4°F14.7°C 54.5°F12.5°C 87% 5.8 mph SSW9.3 kmh SSW 9.2 mph14.8 kmh 30.07 in1018.3 mb - 0.00 in0.0 mm 0.00 in0.0 mm
06:40 AM 58.6°F14.8°C 54.4°F12.4°C 86% 5.8 mph SSW9.3 kmh SSW 8.1 mph13.0 kmh 30.07 in1018.3 mb - 0.00 in0.0 mm 0.00 in0.0 mm
06:45 AM 58.8°F14.9°C 54.6°F12.6°C 86% 8.1 mph SW13.0 kmh SW 12.7 mph20.4 kmh 30.07 in1018.3 mb - 0.00 in0.0 mm 0.00 in0.0 mm
06:50 AM 58.8°F14.9°C 54.6°F12.6°C 86% 6.9 mph SW11.1 kmh SW 9.2 mph14.8 kmh 30.07 in1018.3 mb - 0.00 in0.0 mm 0.00 in0.0 mm
06:55 AM 58.9°F14.9°C 54.7°F12.6°C 86% 6.9 mph SW11.1 kmh SW 9.2 mph14.8 kmh 30.07 in1018.3 mb - 0.00 in0.0 mm 0.00 in0.0 mm
07:00 AM 58.8°F14.9°C 54.6°F12.6°C 86% 8.1 mph SW13.0 kmh SW 10.4 mph16.7 kmh 30.07 in1018.3 mb - 0.00 in0.0 mm 0.00 in0.0 mm
07:10 AM 59.4°F15.2°C 55.2°F12.9°C 86% 5.8 mph SW9.3 kmh SW 11.5 mph18.5 kmh 30.07 in1018.3 mb - 0.00 in0.0 mm 0.00 in0.0 mm
07:15 AM 59.8°F15.4°C 55.3°F12.9°C 85% 9.2 mph SW14.8 kmh SW 12.7 mph20.4 kmh 30.07 in1018.3 mb - 0.00 in0.0 mm 0.00 in0.0 mm
07:20 AM 59.9°F15.5°C 55.0°F12.8°C 84% 9.2 mph SW14.8 kmh SW 11.5 mph18.5 kmh 30.07 in1018.3 mb - 0.00 in0.0 mm 0.00 in0.0 mm
07:25 AM 59.6°F15.3°C 54.7°F12.6°C 84% 9.2 mph SW14.8 kmh SW 11.5 mph18.5 kmh 30.07 in1018.3 mb - 0.00 in0.0 mm 0.00 in0.0 mm
07:30 AM 59.3°F15.2°C 54.8°F12.7°C 85% 8.1 mph SW13.0 kmh SW 11.5 mph18.5 kmh 30.07 in1018.3 mb - 0.00 in0.0 mm 0.00 in0.0 mm
07:35 AM 59.2°F15.1°C 54.7°F12.6°C 85% 9.2 mph SW14.8 kmh SW 12.7 mph20.4 kmh 30.07 in1018.3 mb - 0.00 in0.0 mm 0.00 in0.0 mm
07:40 AM 59.2°F15.1°C 55.0°F12.8°C 86% 9.2 mph SW14.8 kmh SW 11.5 mph18.5 kmh 30.07 in1018.3 mb - 0.00 in0.0 mm 0.00 in0.0 mm
07:45 AM 59.2°F15.1°C 55.0°F12.8°C 86% 10.4 mph SW16.7 kmh SW 12.7 mph20.4 kmh 30.07 in1018.3 mb - 0.00 in0.0 mm 0.00 in0.0 mm
07:50 AM 59.4°F15.2°C 55.2°F12.9°C 86% 6.9 mph SW11.1 kmh SW 9.2 mph14.8 kmh 30.08 in1018.6 mb - 0.00 in0.0 mm 0.00 in0.0 mm
07:55 AM 59.9°F15.5°C 55.7°F13.2°C 86% 10.4 mph SW16.7 kmh SW 12.7 mph20.4 kmh 30.07 in1018.3 mb - 0.00 in0.0 mm 0.00 in0.0 mm
08:00 AM 60.1°F15.6°C 55.6°F13.1°C 85% 9.2 mph SW14.8 kmh SW 12.7 mph20.4 kmh 30.07 in1018.3 mb - 0.00 in0.0 mm 0.00 in0.0 mm
08:10 AM 60.8°F16.0°C 56.3°F13.5°C 85% 11.5 mph SW18.5 kmh SW 15.0 mph24.1 kmh 30.07 in1018.3 mb - 0.00 in0.0 mm 0.00 in0.0 mm
08:15 AM 61.0°F16.1°C 56.5°F13.6°C 85% 10.4 mph SW16.7 kmh SW 13.8 mph22.2 kmh 30.07 in1018.3 mb - 0.00 in0.0 mm 0.00 in0.0 mm
08:20 AM 61.4°F16.3°C 56.8°F13.8°C 85% 8.1 mph SW13.0 kmh SW 11.5 mph18.5 kmh 30.07 in1018.3 mb - 0.00 in0.0 mm 0.00 in0.0 mm
08:25 AM 61.5°F16.4°C 56.3°F13.5°C 83% 9.2 mph SW14.8 kmh SW 15.0 mph24.1 kmh 30.07 in1018.3 mb - 0.00 in0.0 mm 0.00 in0.0 mm
08:30 AM 62.1°F16.7°C 57.2°F14.0°C 84% 8.1 mph SW13.0 kmh SW 11.5 mph18.5 kmh 30.06 in1017.9 mb - 0.00 in0.0 mm 0.00 in0.0 mm
08:35 AM 62.5°F16.9°C 57.2°F14.0°C 83% 8.1 mph SW13.0 kmh SW 13.8 mph22.2 kmh 30.07 in1018.3 mb - 0.00 in0.0 mm 0.00 in0.0 mm
08:40 AM 62.7°F17.1°C 57.1°F13.9°C 82% 11.5 mph WSW18.5 kmh WSW 18.4 mph29.6 kmh 30.06 in1017.9 mb - 0.00 in0.0 mm 0.00 in0.0 mm
08:45 AM 63.0°F17.2°C 57.4°F14.1°C 82% 12.7 mph SW20.4 kmh SW 16.1 mph25.9 kmh 30.06 in1017.9 mb - 0.00 in0.0 mm 0.00 in0.0 mm
08:50 AM 62.9°F17.2°C 57.0°F13.9°C 81% 12.7 mph SW20.4 kmh SW 16.1 mph25.9 kmh 30.06 in1017.9 mb - 0.00 in0.0 mm 0.00 in0.0 mm
08:55 AM 62.9°F17.2°C 57.0°F13.9°C 81% 12.7 mph SW20.4 kmh SW 17.3 mph27.8 kmh 30.06 in1017.9 mb - 0.00 in0.0 mm 0.00 in0.0 mm
09:00 AM 63.0°F17.2°C 57.4°F14.1°C 82% 12.7 mph WSW20.4 kmh WSW 17.3 mph27.8 kmh 30.07 in1018.3 mb - 0.00 in0.0 mm 0.00 in0.0 mm
09:10 AM 62.5°F16.9°C 57.3°F14.1°C 83% 10.4 mph SW16.7 kmh SW 11.5 mph18.5 kmh 30.07 in1018.3 mb - 0.00 in0.0 mm 0.00 in0.0 mm
09:15 AM 62.5°F16.9°C 56.9°F13.8°C 82% 12.7 mph SW20.4 kmh SW 17.3 mph27.8 kmh 30.07 in1018.3 mb - 0.00 in0.0 mm 0.00 in0.0 mm
09:20 AM 61.9°F16.6°C 56.3°F13.5°C 82% 15.0 mph WSW24.1 kmh WSW 18.4 mph29.6 kmh 30.07 in1018.3 mb - 0.00 in0.0 mm 0.00 in0.0 mm
09:25 AM 61.4°F16.3°C 56.5°F13.6°C 84% 10.4 mph SW16.7 kmh SW 11.5 mph18.5 kmh 30.07 in1018.3 mb - 0.00 in0.0 mm 0.00 in0.0 mm
09:30 AM 61.3°F16.3°C 56.1°F13.4°C 83% 15.0 mph SW24.1 kmh SW 17.3 mph27.8 kmh 30.07 in1018.3 mb - 0.00 in0.0 mm 0.00 in0.0 mm
09:35 AM 61.5°F16.4°C 56.6°F13.7°C 84% 8.1 mph SW13.0 kmh SW 11.5 mph18.5 kmh 30.07 in1018.3 mb - 0.00 in0.0 mm 0.00 in0.0 mm
09:40 AM 61.5°F16.4°C 56.6°F13.7°C 84% 10.4 mph SW16.7 kmh SW 17.3 mph27.8 kmh 30.07 in1018.3 mb - 0.00 in0.0 mm 0.00 in0.0 mm
09:45 AM 61.7°F16.5°C 56.8°F13.8°C 84% 9.2 mph WSW14.8 kmh WSW 17.3 mph27.8 kmh 30.07 in1018.3 mb - 0.00 in0.0 mm 0.00 in0.0 mm
09:50 AM 62.1°F16.7°C 56.9°F13.8°C 83% 9.2 mph WSW14.8 kmh WSW 13.8 mph22.2 kmh 30.06 in1017.9 mb - 0.00 in0.0 mm 0.00 in0.0 mm
09:55 AM 62.1°F16.7°C 56.9°F13.8°C 83% 11.5 mph SW18.5 kmh SW 13.8 mph22.2 kmh 30.07 in1018.3 mb - 0.00 in0.0 mm 0.00 in0.0 mm
10:00 AM 61.6°F16.4°C 56.4°F13.6°C 83% 11.5 mph SW18.5 kmh SW 17.3 mph27.8 kmh 30.06 in1017.9 mb - 0.00 in0.0 mm 0.00 in0.0 mm
10:10 AM 61.9°F16.6°C 56.7°F13.7°C 83% 11.5 mph WSW18.5 kmh WSW 16.1 mph25.9 kmh 30.07 in1018.3 mb - 0.00 in0.0 mm 0.00 in0.0 mm
10:15 AM 61.8°F16.6°C 56.5°F13.6°C 83% 12.7 mph WSW20.4 kmh WSW 17.3 mph27.8 kmh 30.07 in1018.3 mb - 0.00 in0.0 mm 0.00 in0.0 mm
10:20 AM 61.5°F16.4°C 56.3°F13.5°C 83% 11.5 mph SW18.5 kmh SW 15.0 mph24.1 kmh 30.07 in1018.3 mb - 0.00 in0.0 mm 0.00 in0.0 mm
10:25 AM 61.5°F16.4°C 56.3°F13.5°C 83% 11.5 mph WSW18.5 kmh WSW 12.7 mph20.4 kmh 30.07 in1018.3 mb - 0.00 in0.0 mm 0.00 in0.0 mm
10:30 AM 61.8°F16.6°C 56.6°F13.7°C 83% 12.7 mph WSW20.4 kmh WSW 18.4 mph29.6 kmh 30.07 in1018.3 mb - 0.00 in0.0 mm 0.00 in0.0 mm
10:35 AM 61.5°F16.4°C 56.3°F13.5°C 83% 16.1 mph WSW25.9 kmh WSW 19.6 mph31.5 kmh 30.07 in1018.3 mb - 0.00 in0.0 mm 0.00 in0.0 mm
10:40 AM 62.0°F16.7°C 56.5°F13.6°C 82% 13.8 mph WSW22.2 kmh WSW 19.6 mph31.5 kmh 30.07 in1018.3 mb - 0.00 in0.0 mm 0.00 in0.0 mm
10:45 AM 62.3°F16.8°C 56.8°F13.8°C 82% 11.5 mph SW18.5 kmh SW 19.6 mph31.5 kmh 30.07 in1018.3 mb - 0.00 in0.0 mm 0.00 in0.0 mm
10:50 AM 62.6°F17.0°C 57.4°F14.1°C 83% 9.2 mph WSW14.8 kmh WSW 11.5 mph18.5 kmh 30.07 in1018.3 mb - 0.00 in0.0 mm 0.00 in0.0 mm
10:55 AM 62.8°F17.1°C 56.8°F13.8°C 81% 13.8 mph SW22.2 kmh SW 17.3 mph27.8 kmh 30.07 in1018.3 mb - 0.00 in0.0 mm 0.00 in0.0 mm
11:00 AM 62.2°F16.8°C 57.0°F13.9°C 83% 10.4 mph WSW16.7 kmh WSW 12.7 mph20.4 kmh 30.07 in1018.3 mb - 0.00 in0.0 mm 0.00 in0.0 mm
11:10 AM 61.8°F16.6°C 56.2°F13.4°C 82% 9.2 mph WSW14.8 kmh WSW 12.7 mph20.4 kmh 30.07 in1018.3 mb - 0.00 in0.0 mm 0.00 in0.0 mm
11:15 AM 62.1°F16.7°C 56.5°F13.6°C 82% 12.7 mph WSW20.4 kmh WSW 19.6 mph31.5 kmh 30.07 in1018.3 mb - 0.00 in0.0 mm 0.00 in0.0 mm
11:20 AM 62.4°F16.9°C 56.5°F13.6°C 81% 12.7 mph WSW20.4 kmh WSW 18.4 mph29.6 kmh 30.08 in1018.6 mb - 0.00 in0.0 mm 0.00 in0.0 mm
11:25 AM 62.7°F17.1°C 56.5°F13.6°C 80% 13.8 mph WSW22.2 kmh WSW 17.3 mph27.8 kmh 30.08 in1018.6 mb - 0.00 in0.0 mm 0.00 in0.0 mm
11:30 AM 63.5°F17.5°C 57.3°F14.1°C 80% 10.4 mph WSW16.7 kmh WSW 15.0 mph24.1 kmh 30.08 in1018.6 mb - 0.00 in0.0 mm 0.00 in0.0 mm
11:35 AM 64.6°F18.1°C 58.3°F14.6°C 80% 11.5 mph WSW18.5 kmh WSW 17.3 mph27.8 kmh 30.08 in1018.6 mb - 0.00 in0.0 mm 0.00 in0.0 mm
11:40 AM 63.1°F17.3°C 56.1°F13.4°C 78% 11.5 mph W18.5 kmh W 15.0 mph24.1 kmh 30.09 in1019.0 mb - 0.00 in0.0 mm 0.00 in0.0 mm
11:45 AM 62.9°F17.2°C 56.3°F13.5°C 79% 11.5 mph WSW18.5 kmh WSW 15.0 mph24.1 kmh 30.09 in1019.0 mb - 0.00 in0.0 mm 0.00 in0.0 mm
11:50 AM 62.7°F17.1°C 56.1°F13.4°C 79% 12.7 mph WSW20.4 kmh WSW 16.1 mph25.9 kmh 30.09 in1019.0 mb - 0.00 in0.0 mm 0.00 in0.0 mm
11:55 AM 63.0°F17.2°C 56.7°F13.7°C 80% 11.5 mph WSW18.5 kmh WSW 18.4 mph29.6 kmh 30.09 in1019.0 mb - 0.00 in0.0 mm 0.00 in0.0 mm
12:00 PM 62.8°F17.1°C 56.2°F13.4°C 79% 11.5 mph W18.5 kmh W 16.1 mph25.9 kmh 30.09 in1019.0 mb - 0.00 in0.0 mm 0.00 in0.0 mm
12:10 PM 62.3°F16.8°C 56.1°F13.4°C 80% 10.4 mph W16.7 kmh W 15.0 mph24.1 kmh 30.09 in1019.0 mb - 0.00 in0.0 mm 0.00 in0.0 mm
12:15 PM 61.6°F16.4°C 55.3°F12.9°C 80% 9.2 mph W14.8 kmh W 11.5 mph18.5 kmh 30.10 in1019.3 mb - 0.00 in0.0 mm 0.00 in0.0 mm
12:20 PM 61.5°F16.4°C 55.6°F13.1°C 81% 11.5 mph WSW18.5 kmh WSW 16.1 mph25.9 kmh 30.09 in1019.0 mb - 0.00 in0.0 mm 0.00 in0.0 mm
12:25 PM 61.5°F16.4°C 55.7°F13.2°C 81% 12.7 mph WSW20.4 kmh WSW 19.6 mph31.5 kmh 30.10 in1019.3 mb - 0.00 in0.0 mm 0.00 in0.0 mm
12:30 PM 61.8°F16.6°C 56.3°F13.5°C 82% 9.2 mph W14.8 kmh W 11.5 mph18.5 kmh 30.10 in1019.3 mb - 0.00 in0.0 mm 0.00 in0.0 mm
12:35 PM 62.0°F16.7°C 55.8°F13.2°C 80% 10.4 mph WSW16.7 kmh WSW 17.3 mph27.8 kmh 30.09 in1019.0 mb - 0.00 in0.0 mm 0.00 in0.0 mm
12:40 PM 62.1°F16.7°C 55.8°F13.2°C 80% 11.5 mph WSW18.5 kmh WSW 16.1 mph25.9 kmh 30.10 in1019.3 mb - 0.00 in0.0 mm 0.00 in0.0 mm
12:45 PM 62.1°F16.7°C 55.9°F13.3°C 80% 9.2 mph WSW14.8 kmh WSW 11.5 mph18.5 kmh 30.10 in1019.3 mb - 0.00 in0.0 mm 0.00 in0.0 mm
12:50 PM 62.4°F16.9°C 56.1°F13.4°C 80% 9.2 mph WSW14.8 kmh WSW 15.0 mph24.1 kmh 30.10 in1019.3 mb - 0.00 in0.0 mm 0.00 in0.0 mm
12:55 PM 62.6°F17.0°C 56.3°F13.5°C 80% 10.4 mph W16.7 kmh W 13.8 mph22.2 kmh 30.10 in1019.3 mb - 0.00 in0.0 mm 0.00 in0.0 mm
01:00 PM 62.3°F16.8°C 56.0°F13.3°C 80% 10.4 mph WSW16.7 kmh WSW 16.1 mph25.9 kmh 30.10 in1019.3 mb - 0.00 in0.0 mm 0.00 in0.0 mm
01:10 PM 61.7°F16.5°C 55.8°F13.2°C 81% 10.4 mph W16.7 kmh W 12.7 mph20.4 kmh 30.10 in1019.3 mb - 0.00 in0.0 mm 0.00 in0.0 mm
01:15 PM 61.2°F16.2°C 55.0°F12.8°C 80% 15.0 mph WSW24.1 kmh WSW 19.6 mph31.5 kmh 30.10 in1019.3 mb - 0.00 in0.0 mm 0.00 in0.0 mm
01:20 PM 60.9°F16.1°C 55.0°F12.8°C 81% 11.5 mph WSW18.5 kmh WSW 15.0 mph24.1 kmh 30.10 in1019.3 mb - 0.00 in0.0 mm 0.00 in0.0 mm
01:25 PM 61.2°F16.2°C 55.0°F12.8°C 80% 12.7 mph WSW20.4 kmh WSW 17.3 mph27.8 kmh 30.10 in1019.3 mb - 0.00 in0.0 mm 0.00 in0.0 mm
01:30 PM 61.4°F16.3°C 55.2°F12.9°C 80% 12.7 mph WSW20.4 kmh WSW 17.3 mph27.8 kmh 30.10 in1019.3 mb - 0.00 in0.0 mm 0.00 in0.0 mm
01:35 PM 61.8°F16.6°C 55.6°F13.1°C 80% 12.7 mph SW20.4 kmh SW 16.1 mph25.9 kmh 30.10 in1019.3 mb - 0.00 in0.0 mm 0.00 in0.0 mm
01:40 PM 62.3°F16.8°C 56.1°F13.4°C 80% 10.4 mph WSW16.7 kmh WSW 17.3 mph27.8 kmh 30.10 in1019.3 mb - 0.00 in0.0 mm 0.00 in0.0 mm
01:45 PM 62.4°F16.9°C 55.4°F13.0°C 78% 10.4 mph W16.7 kmh W 13.8 mph22.2 kmh 30.10 in1019.3 mb - 0.00 in0.0 mm 0.00 in0.0 mm
01:50 PM 62.4°F16.9°C 55.8°F13.2°C 79% 10.4 mph WSW16.7 kmh WSW 13.8 mph22.2 kmh 30.10 in1019.3 mb - 0.00 in0.0 mm 0.00 in0.0 mm
01:55 PM 62.2°F16.8°C 55.6°F13.1°C 79% 11.5 mph WSW18.5 kmh WSW 16.1 mph25.9 kmh 30.10 in1019.3 mb - 0.00 in0.0 mm 0.00 in0.0 mm
02:00 PM 63.2°F17.3°C 56.2°F13.4°C 78% 11.5 mph WSW18.5 kmh WSW 12.7 mph20.4 kmh 30.10 in1019.3 mb - 0.00 in0.0 mm 0.00 in0.0 mm
02:10 PM 63.6°F17.6°C 55.5°F13.1°C 75% 11.5 mph WSW18.5 kmh WSW 12.7 mph20.4 kmh 30.10 in1019.3 mb - 0.00 in0.0 mm 0.00 in0.0 mm
02:15 PM 64.1°F17.8°C 56.0°F13.3°C 75% 10.4 mph WSW16.7 kmh WSW 13.8 mph22.2 kmh 30.10 in1019.3 mb - 0.00 in0.0 mm 0.00 in0.0 mm
02:20 PM 63.8°F17.7°C 54.9°F12.7°C 73% 11.5 mph WSW18.5 kmh WSW 13.8 mph22.2 kmh 30.09 in1019.0 mb - 0.00 in0.0 mm 0.00 in0.0 mm
02:25 PM 62.9°F17.2°C 54.1°F12.3°C 73% 10.4 mph W16.7 kmh W 11.5 mph18.5 kmh 30.09 in1019.0 mb - 0.00 in0.0 mm 0.00 in0.0 mm
02:30 PM 62.9°F17.2°C 54.5°F12.5°C 74% 12.7 mph W20.4 kmh W 17.3 mph27.8 kmh 30.09 in1019.0 mb - 0.00 in0.0 mm 0.00 in0.0 mm
02:35 PM 63.1°F17.3°C 54.7°F12.6°C 74% 9.2 mph WSW14.8 kmh WSW 13.8 mph22.2 kmh 30.09 in1019.0 mb - 0.00 in0.0 mm 0.00 in0.0 mm
02:40 PM 64.1°F17.8°C 54.1°F12.3°C 70% 13.8 mph WSW22.2 kmh WSW 16.1 mph25.9 kmh 30.09 in1019.0 mb - 0.00 in0.0 mm 0.00 in0.0 mm
02:45 PM 64.4°F18.0°C 54.4°F12.4°C 70% 13.8 mph W22.2 kmh W 17.3 mph27.8 kmh 30.09 in1019.0 mb - 0.00 in0.0 mm 0.00 in0.0 mm
02:50 PM 64.3°F17.9°C 53.9°F12.2°C 69% 16.1 mph W25.9 kmh W 19.6 mph31.5 kmh 30.09 in1019.0 mb - 0.00 in0.0 mm 0.00 in0.0 mm
02:55 PM 64.8°F18.2°C 54.0°F12.2°C 68% 12.7 mph W20.4 kmh W 15.0 mph24.1 kmh 30.09 in1019.0 mb - 0.00 in0.0 mm 0.00 in0.0 mm
03:00 PM 63.4°F17.4°C 53.0°F11.7°C 69% 10.4 mph W16.7 kmh W 19.6 mph31.5 kmh 30.10 in1019.3 mb - 0.00 in0.0 mm 0.00 in0.0 mm
03:10 PM 62.7°F17.1°C 52.8°F11.6°C 70% 12.7 mph WSW20.4 kmh WSW 17.3 mph27.8 kmh 30.09 in1019.0 mb - 0.00 in0.0 mm 0.00 in0.0 mm
03:15 PM 62.9°F17.2°C 53.4°F11.9°C 71% 13.8 mph W22.2 kmh W 18.4 mph29.6 kmh 30.10 in1019.3 mb - 0.00 in0.0 mm 0.00 in0.0 mm
03:20 PM 62.9°F17.2°C 53.3°F11.8°C 71% 12.7 mph W20.4 kmh W 19.6 mph31.5 kmh 30.09 in1019.0 mb - 0.00 in0.0 mm 0.00 in0.0 mm
03:25 PM 62.7°F17.1°C 52.8°F11.6°C 70% 16.1 mph W25.9 kmh W 20.7 mph33.3 kmh 30.10 in1019.3 mb - 0.00 in0.0 mm 0.00 in0.0 mm
03:30 PM 62.4°F16.9°C 52.1°F11.2°C 69% 13.8 mph WSW22.2 kmh WSW 19.6 mph31.5 kmh 30.10 in1019.3 mb - 0.00 in0.0 mm 0.00 in0.0 mm
03:35 PM 62.7°F17.1°C 53.1°F11.7°C 71% 10.4 mph WSW16.7 kmh WSW 11.5 mph18.5 kmh 30.10 in1019.3 mb - 0.00 in0.0 mm 0.00 in0.0 mm
03:40 PM 62.1°F16.7°C 53.0°F11.7°C 72% 11.5 mph WNW18.5 kmh WNW 17.3 mph27.8 kmh 30.10 in1019.3 mb - 0.00 in0.0 mm 0.00 in0.0 mm
03:45 PM 62.4°F16.9°C 53.6°F12.0°C 73% 11.5 mph WSW18.5 kmh WSW 13.8 mph22.2 kmh 30.10 in1019.3 mb - 0.00 in0.0 mm 0.00 in0.0 mm
03:50 PM 62.1°F16.7°C 52.6°F11.4°C 71% 11.5 mph W18.5 kmh W 15.0 mph24.1 kmh 30.11 in1019.6 mb - 0.00 in0.0 mm 0.00 in0.0 mm
03:55 PM 61.0°F16.1°C 52.7°F11.5°C 74% 9.2 mph W14.8 kmh W 12.7 mph20.4 kmh 30.10 in1019.3 mb - 0.00 in0.0 mm 0.00 in0.0 mm
04:00 PM 61.6°F16.4°C 53.6°F12.0°C 75% 10.4 mph W16.7 kmh W 16.1 mph25.9 kmh 30.11 in1019.6 mb - 0.00 in0.0 mm 0.00 in0.0 mm
04:10 PM 62.5°F16.9°C 53.3°F11.8°C 72% 11.5 mph W18.5 kmh W 18.4 mph29.6 kmh 30.11 in1019.6 mb - 0.00 in0.0 mm 0.00 in0.0 mm
04:15 PM 62.7°F17.1°C 53.2°F11.8°C 71% 10.4 mph WSW16.7 kmh WSW 16.1 mph25.9 kmh 30.11 in1019.6 mb - 0.00 in0.0 mm 0.00 in0.0 mm
04:20 PM 62.2°F16.8°C 52.7°F11.5°C 71% 11.5 mph WSW18.5 kmh WSW 16.1 mph25.9 kmh 30.11 in1019.6 mb - 0.00 in0.0 mm 0.00 in0.0 mm
04:25 PM 61.1°F16.2°C 53.1°F11.7°C 75% 10.4 mph NW16.7 kmh NW 15.0 mph24.1 kmh 30.11 in1019.6 mb - 0.00 in0.0 mm 0.00 in0.0 mm
04:30 PM 60.4°F15.8°C 52.4°F11.3°C 75% 11.5 mph WNW18.5 kmh WNW 16.1 mph25.9 kmh 30.11 in1019.6 mb - 0.00 in0.0 mm 0.00 in0.0 mm
04:35 PM 61.4°F16.3°C 52.7°F11.5°C 73% 11.5 mph W18.5 kmh W 16.1 mph25.9 kmh 30.11 in1019.6 mb - 0.00 in0.0 mm 0.00 in0.0 mm
04:40 PM 60.6°F15.9°C 52.6°F11.4°C 75% 6.9 mph W11.1 kmh W 11.5 mph18.5 kmh 30.11 in1019.6 mb - 0.00 in0.0 mm 0.00 in0.0 mm
04:45 PM 62.1°F16.7°C 54.1°F12.3°C 75% 9.2 mph W14.8 kmh W 11.5 mph18.5 kmh 30.11 in1019.6 mb - 0.00 in0.0 mm 0.00 in0.0 mm
04:50 PM 61.1°F16.2°C 52.7°F11.5°C 74% 9.2 mph WNW14.8 kmh WNW 16.1 mph25.9 kmh 30.10 in1019.3 mb - 0.00 in0.0 mm 0.00 in0.0 mm
04:55 PM 60.9°F16.1°C 52.2°F11.2°C 73% 9.2 mph W14.8 kmh W 12.7 mph20.4 kmh 30.10 in1019.3 mb - 0.00 in0.0 mm 0.00 in0.0 mm
05:00 PM 60.4°F15.8°C 52.1°F11.2°C 74% 10.4 mph WNW16.7 kmh WNW 15.0 mph24.1 kmh 30.10 in1019.3 mb - 0.00 in0.0 mm 0.00 in0.0 mm
05:10 PM 60.0°F15.6°C 52.0°F11.1°C 75% 8.1 mph WSW13.0 kmh WSW 11.5 mph18.5 kmh 30.10 in1019.3 mb - 0.00 in0.0 mm 0.00 in0.0 mm
05:15 PM 59.2°F15.1°C 51.6°F10.9°C 76% 10.4 mph W16.7 kmh W 11.5 mph18.5 kmh 30.10 in1019.3 mb - 0.00 in0.0 mm 0.00 in0.0 mm
05:20 PM 59.1°F15.1°C 51.9°F11.1°C 77% 8.1 mph W13.0 kmh W 11.5 mph18.5 kmh 30.10 in1019.3 mb - 0.00 in0.0 mm 0.00 in0.0 mm
05:25 PM 60.0°F15.6°C 52.4°F11.3°C 76% 9.2 mph WSW14.8 kmh WSW 13.8 mph22.2 kmh 30.10 in1019.3 mb - 0.00 in0.0 mm 0.00 in0.0 mm
05:30 PM 60.2°F15.7°C 52.9°F11.6°C 77% 6.9 mph WNW11.1 kmh WNW 10.4 mph16.7 kmh 30.10 in1019.3 mb - 0.00 in0.0 mm 0.00 in0.0 mm
05:35 PM 59.9°F15.5°C 52.0°F11.1°C 75% 9.2 mph W14.8 kmh W 11.5 mph18.5 kmh 30.10 in1019.3 mb - 0.00 in0.0 mm 0.00 in0.0 mm
05:40 PM 59.5°F15.3°C 51.9°F11.1°C 76% 8.1 mph W13.0 kmh W 10.4 mph16.7 kmh 30.10 in1019.3 mb - 0.00 in0.0 mm 0.00 in0.0 mm
05:45 PM 59.2°F15.1°C 51.6°F10.9°C 76% 10.4 mph W16.7 kmh W 11.5 mph18.5 kmh 30.11 in1019.6 mb - 0.00 in0.0 mm 0.00 in0.0 mm
05:50 PM 59.0°F15.0°C 51.4°F10.8°C 76% 6.9 mph WSW11.1 kmh WSW 8.1 mph13.0 kmh 30.11 in1019.6 mb - 0.00 in0.0 mm 0.00 in0.0 mm
05:55 PM 59.6°F15.3°C 51.7°F10.9°C 75% 9.2 mph WSW14.8 kmh WSW 11.5 mph18.5 kmh 30.10 in1019.3 mb - 0.00 in0.0 mm 0.00 in0.0 mm
06:00 PM 59.1°F15.1°C 51.5°F10.8°C 76% 6.9 mph W11.1 kmh W 10.4 mph16.7 kmh 30.10 in1019.3 mb - 0.00 in0.0 mm 0.00 in0.0 mm
06:10 PM 59.7°F15.4°C 51.7°F10.9°C 75% 9.2 mph WSW14.8 kmh WSW 12.7 mph20.4 kmh 30.10 in1019.3 mb - 0.00 in0.0 mm 0.00 in0.0 mm
06:15 PM 58.7°F14.8°C 51.1°F10.6°C 76% 8.1 mph WSW13.0 kmh WSW 10.4 mph16.7 kmh 30.10 in1019.3 mb - 0.00 in0.0 mm 0.00 in0.0 mm
06:20 PM 58.7°F14.8°C 51.5°F10.8°C 77% 6.9 mph W11.1 kmh W 9.2 mph14.8 kmh 30.10 in1019.3 mb - 0.00 in0.0 mm 0.00 in0.0 mm
06:25 PM 58.8°F14.9°C 51.2°F10.7°C 76% 8.1 mph W13.0 kmh W 11.5 mph18.5 kmh 30.10 in1019.3 mb - 0.00 in0.0 mm 0.00 in0.0 mm
06:30 PM 58.8°F14.9°C 51.6°F10.9°C 77% 9.2 mph W14.8 kmh W 11.5 mph18.5 kmh 30.10 in1019.3 mb - 0.00 in0.0 mm 0.00 in0.0 mm
06:35 PM 58.4°F14.7°C 51.6°F10.9°C 78% 4.6 mph W7.4 kmh W 6.9 mph11.1 kmh 30.10 in1019.3 mb - 0.00 in0.0 mm 0.00 in0.0 mm
06:40 PM 58.8°F14.9°C 51.9°F11.1°C 78% 5.8 mph WNW9.3 kmh WNW 8.1 mph13.0 kmh 30.10 in1019.3 mb - 0.00 in0.0 mm 0.00 in0.0 mm
06:45 PM 59.0°F15.0°C 52.1°F11.2°C 78% 5.8 mph W9.3 kmh W 9.2 mph14.8 kmh 30.10 in1019.3 mb - 0.00 in0.0 mm 0.00 in0.0 mm
06:50 PM 58.7°F14.8°C 51.2°F10.7°C 76% 8.1 mph WNW13.0 kmh WNW 10.4 mph16.7 kmh 30.10 in1019.3 mb - 0.00 in0.0 mm 0.00 in0.0 mm
06:55 PM 58.2°F14.6°C 51.1°F10.6°C 77% 6.9 mph WSW11.1 kmh WSW 10.4 mph16.7 kmh 30.10 in1019.3 mb - 0.00 in0.0 mm 0.00 in0.0 mm
07:00 PM 58.2°F14.6°C 51.4°F10.8°C 78% 5.8 mph W9.3 kmh W 8.1 mph13.0 kmh 30.10 in1019.3 mb - 0.00 in0.0 mm 0.00 in0.0 mm
07:10 PM 58.3°F14.6°C 51.5°F10.8°C 78% 5.8 mph W9.3 kmh W 8.1 mph13.0 kmh 30.10 in1019.3 mb - 0.00 in0.0 mm 0.00 in0.0 mm
07:15 PM 58.1°F14.5°C 50.9°F10.5°C 77% 6.9 mph W11.1 kmh W 9.2 mph14.8 kmh 30.10 in1019.3 mb - 0.00 in0.0 mm 0.00 in0.0 mm
07:20 PM 57.4°F14.1°C 50.9°F10.5°C 79% 4.6 mph WSW7.4 kmh WSW 9.2 mph14.8 kmh 30.09 in1019.0 mb - 0.00 in0.0 mm 0.00 in0.0 mm
07:25 PM 57.2°F14.0°C 51.1°F10.6°C 80% 5.8 mph W9.3 kmh W 8.1 mph13.0 kmh 30.10 in1019.3 mb - 0.00 in0.0 mm 0.00 in0.0 mm
07:30 PM 57.2°F14.0°C 51.1°F10.6°C 80% 3.5 mph W5.6 kmh W 3.5 mph5.6 kmh 30.10 in1019.3 mb - 0.00 in0.0 mm 0.00 in0.0 mm
07:35 PM 57.0°F13.9°C 51.2°F10.7°C 81% 4.6 mph WSW7.4 kmh WSW 5.8 mph9.3 kmh 30.10 in1019.3 mb - 0.00 in0.0 mm 0.00 in0.0 mm
07:40 PM 56.9°F13.8°C 51.1°F10.6°C 81% 2.3 mph WSW3.7 kmh WSW 5.8 mph9.3 kmh 30.10 in1019.3 mb - 0.00 in0.0 mm 0.00 in0.0 mm
07:45 PM 56.5°F13.6°C 50.4°F10.2°C 80% 3.5 mph WSW5.6 kmh WSW 3.5 mph5.6 kmh 30.10 in1019.3 mb - 0.00 in0.0 mm 0.00 in0.0 mm
07:50 PM 56.3°F13.5°C 50.5°F10.3°C 81% 3.5 mph W5.6 kmh W 3.5 mph5.6 kmh 30.10 in1019.3 mb - 0.00 in0.0 mm 0.00 in0.0 mm
07:55 PM 56.2°F13.4°C 50.8°F10.4°C 82% 2.3 mph W3.7 kmh W 3.5 mph5.6 kmh 30.10 in1019.3 mb - 0.00 in0.0 mm 0.00 in0.0 mm
08:00 PM 56.1°F13.4°C 50.7°F10.4°C 82% 3.5 mph WSW5.6 kmh WSW 3.5 mph5.6 kmh 30.10 in1019.3 mb - 0.00 in0.0 mm 0.00 in0.0 mm
08:10 PM 56.0°F13.3°C 50.9°F10.5°C 83% 3.5 mph WSW5.6 kmh WSW 5.8 mph9.3 kmh 30.10 in1019.3 mb - 0.00 in0.0 mm 0.00 in0.0 mm
08:15 PM 55.9°F13.3°C 50.8°F10.4°C 83% 3.5 mph WSW5.6 kmh WSW 4.6 mph7.4 kmh 30.10 in1019.3 mb - 0.00 in0.0 mm 0.00 in0.0 mm
08:20 PM 55.8°F13.2°C 50.7°F10.4°C 83% 4.6 mph WSW7.4 kmh WSW 5.8 mph9.3 kmh 30.10 in1019.3 mb - 0.00 in0.0 mm 0.00 in0.0 mm
08:25 PM 55.7°F13.2°C 50.6°F10.3°C 83% 2.3 mph WSW3.7 kmh WSW 3.5 mph5.6 kmh 30.10 in1019.3 mb - 0.00 in0.0 mm 0.00 in0.0 mm
08:30 PM 55.4°F13.0°C 50.6°F10.3°C 84% 3.5 mph WSW5.6 kmh WSW 3.5 mph5.6 kmh 30.09 in1019.0 mb - 0.00 in0.0 mm 0.00 in0.0 mm
08:35 PM 55.2°F12.9°C 50.4°F10.2°C 84% 2.3 mph WSW3.7 kmh WSW 3.5 mph5.6 kmh 30.10 in1019.3 mb - 0.00 in0.0 mm 0.00 in0.0 mm
08:40 PM 54.8°F12.7°C 50.3°F10.2°C 85% 2.3 mph WSW3.7 kmh WSW 3.5 mph5.6 kmh 30.10 in1019.3 mb - 0.00 in0.0 mm 0.00 in0.0 mm
08:45 PM 54.5°F12.5°C 50.1°F10.1°C 85% 2.3 mph WSW3.7 kmh WSW 3.5 mph5.6 kmh 30.10 in1019.3 mb - 0.00 in0.0 mm 0.00 in0.0 mm
08:50 PM 54.3°F12.4°C 49.8°F9.9°C 85% 2.3 mph WSW3.7 kmh WSW 3.5 mph5.6 kmh 30.10 in1019.3 mb - 0.00 in0.0 mm 0.00 in0.0 mm
08:55 PM 53.8°F12.1°C 49.7°F9.8°C 86% 2.3 mph WSW3.7 kmh WSW 3.5 mph5.6 kmh 30.10 in1019.3 mb - 0.00 in0.0 mm 0.00 in0.0 mm
09:00 PM 53.4°F11.9°C 49.6°F9.8°C 87% 2.3 mph WSW3.7 kmh WSW 3.5 mph5.6 kmh 30.10 in1019.3 mb - 0.00 in0.0 mm 0.00 in0.0 mm
09:10 PM 53.3°F11.8°C 49.5°F9.7°C 87% 3.5 mph WSW5.6 kmh WSW 4.6 mph7.4 kmh 30.11 in1019.6 mb - 0.00 in0.0 mm 0.00 in0.0 mm
09:15 PM 53.2°F11.8°C 49.7°F9.8°C 88% 3.5 mph WSW5.6 kmh WSW 3.5 mph5.6 kmh 30.11 in1019.6 mb - 0.00 in0.0 mm 0.00 in0.0 mm
09:20 PM 53.1°F11.7°C 49.4°F9.7°C 87% 2.3 mph WSW3.7 kmh WSW 3.5 mph5.6 kmh 30.11 in1019.6 mb - 0.00 in0.0 mm 0.00 in0.0 mm
09:25 PM 52.7°F11.5°C 49.0°F9.4°C 87% 2.3 mph WSW3.7 kmh WSW 3.5 mph5.6 kmh 30.11 in1019.6 mb - 0.00 in0.0 mm 0.00 in0.0 mm
09:30 PM 52.2°F11.2°C 48.8°F9.3°C 88% 2.3 mph WSW3.7 kmh WSW 3.5 mph5.6 kmh 30.11 in1019.6 mb - 0.00 in0.0 mm 0.00 in0.0 mm
09:35 PM 52.1°F11.2°C 48.9°F9.4°C 89% 2.3 mph WSW3.7 kmh WSW 3.5 mph5.6 kmh 30.11 in1019.6 mb - 0.00 in0.0 mm 0.00 in0.0 mm
09:40 PM 52.1°F11.2°C 49.0°F9.4°C 89% 1.2 mph WSW1.9 kmh WSW 3.5 mph5.6 kmh 30.11 in1019.6 mb - 0.00 in0.0 mm 0.00 in0.0 mm
09:45 PM 52.1°F11.2°C 49.0°F9.4°C 89% 2.3 mph WSW3.7 kmh WSW 3.5 mph5.6 kmh 30.11 in1019.6 mb - 0.00 in0.0 mm 0.00 in0.0 mm
09:50 PM 51.9°F11.1°C 48.8°F9.3°C 89% 3.5 mph W5.6 kmh W 3.5 mph5.6 kmh 30.11 in1019.6 mb - 0.00 in0.0 mm 0.00 in0.0 mm
09:55 PM 52.5°F11.4°C 49.9°F9.9°C 91% 4.6 mph W7.4 kmh W 8.1 mph13.0 kmh 30.11 in1019.6 mb - 0.00 in0.0 mm 0.00 in0.0 mm
10:00 PM 52.8°F11.6°C 49.9°F9.9°C 90% 3.5 mph W5.6 kmh W 3.5 mph5.6 kmh 30.11 in1019.6 mb - 0.00 in0.0 mm 0.00 in0.0 mm
10:10 PM 52.6°F11.4°C 49.4°F9.7°C 89% 3.5 mph WSW5.6 kmh WSW 5.8 mph9.3 kmh 30.11 in1019.6 mb - 0.00 in0.0 mm 0.00 in0.0 mm
10:15 PM 52.0°F11.1°C 48.9°F9.4°C 89% 2.3 mph WSW3.7 kmh WSW 3.5 mph5.6 kmh 30.10 in1019.3 mb - 0.00 in0.0 mm 0.00 in0.0 mm
10:20 PM 51.9°F11.1°C 49.1°F9.5°C 90% 2.3 mph WSW3.7 kmh WSW 3.5 mph5.6 kmh 30.10 in1019.3 mb - 0.00 in0.0 mm 0.00 in0.0 mm
10:25 PM 51.7°F10.9°C 48.8°F9.3°C 90% 1.2 mph WSW1.9 kmh WSW 2.3 mph3.7 kmh 30.11 in1019.6 mb - 0.00 in0.0 mm 0.00 in0.0 mm
10:30 PM 51.6°F10.9°C 48.8°F9.3°C 90% Calm Calm 1.2 mph1.9 kmh 30.10 in1019.3 mb - 0.00 in0.0 mm 0.00 in0.0 mm
10:35 PM 51.9°F11.1°C 49.3°F9.6°C 91% Calm Calm 1.2 mph1.9 kmh 30.10 in1019.3 mb - 0.00 in0.0 mm 0.00 in0.0 mm
10:40 PM 51.7°F10.9°C 48.9°F9.4°C 90% 1.2 mph WSW1.9 kmh WSW 2.3 mph3.7 kmh 30.10 in1019.3 mb - 0.00 in0.0 mm 0.00 in0.0 mm
10:45 PM 51.2°F10.7°C 48.4°F9.1°C 90% Calm Calm 1.2 mph1.9 kmh 30.10 in1019.3 mb - 0.00 in0.0 mm 0.00 in0.0 mm
10:50 PM 51.2°F10.7°C 48.7°F9.3°C 91% 1.2 mph WSW1.9 kmh WSW 1.2 mph1.9 kmh 30.09 in1019.0 mb - 0.00 in0.0 mm 0.00 in0.0 mm
10:55 PM 51.1°F10.6°C 48.6°F9.2°C 91% 1.2 mph WSW1.9 kmh WSW 2.3 mph3.7 kmh 30.09 in1019.0 mb - 0.00 in0.0 mm 0.00 in0.0 mm
11:00 PM 50.7°F10.4°C 47.9°F8.8°C 90% 1.2 mph WSW1.9 kmh WSW 2.3 mph3.7 kmh 30.10 in1019.3 mb - 0.00 in0.0 mm 0.00 in0.0 mm
11:10 PM 50.4°F10.2°C 47.9°F8.8°C 91% 1.2 mph WSW1.9 kmh WSW 1.2 mph1.9 kmh 30.10 in1019.3 mb - 0.00 in0.0 mm 0.00 in0.0 mm
11:15 PM 50.6°F10.3°C 48.1°F8.9°C 91% Calm Calm -- 30.10 in1019.3 mb - 0.00 in0.0 mm 0.00 in0.0 mm
11:20 PM 50.6°F10.3°C 48.4°F9.1°C 92% Calm Calm 1.2 mph1.9 kmh 30.10 in1019.3 mb - 0.00 in0.0 mm 0.00 in0.0 mm
11:25 PM 50.6°F10.3°C 48.1°F8.9°C 91% 1.2 mph WSW1.9 kmh WSW 2.3 mph3.7 kmh 30.10 in1019.3 mb - 0.00 in0.0 mm 0.00 in0.0 mm
11:30 PM 49.9°F9.9°C 47.4°F8.6°C 91% 2.3 mph W3.7 kmh W 3.5 mph5.6 kmh 30.10 in1019.3 mb - 0.00 in0.0 mm 0.00 in0.0 mm
11:35 PM 50.2°F10.1°C 48.0°F8.9°C 92% 2.3 mph WSW3.7 kmh WSW 3.5 mph5.6 kmh 30.11 in1019.6 mb - 0.00 in0.0 mm 0.00 in0.0 mm
11:40 PM 50.2°F10.1°C 48.0°F8.9°C 92% 2.3 mph WSW3.7 kmh WSW 3.5 mph5.6 kmh 30.11 in1019.6 mb - 0.00 in0.0 mm 0.00 in0.0 mm
11:45 PM 50.4°F10.2°C 48.2°F9.0°C 92% 2.3 mph WSW3.7 kmh WSW 3.5 mph5.6 kmh 30.10 in1019.3 mb - 0.00 in0.0 mm 0.00 in0.0 mm
11:50 PM 50.9°F10.5°C 48.6°F9.2°C 92% 2.3 mph W3.7 kmh W 3.5 mph5.6 kmh 30.10 in1019.3 mb - 0.00 in0.0 mm 0.00 in0.0 mm
11:55 PM 50.9°F10.5°C 48.7°F9.3°C 92% 2.3 mph WSW3.7 kmh WSW 3.5 mph5.6 kmh 30.10 in1019.3 mb - 0.00 in0.0 mm 0.00 in0.0 mm